Time;durP1;ratioP1;P1;durP2;ratioP2;P2;SDS_P1;SDS_P2;PMS_P1;PMS_P2;Temp;Humidity;BMP_temperature;BMP_pressure;BME280_temperature;BME280_humidity;BME280_pressure;Samples;Min_cycle;Max_cycle;Signal;HPM_P1;HPM_P2
2023/06/14 00:01:14;;;;;;;;;;;;;;;16.89;55.14;99301.78;4481321;32;34443;-87
2023/06/14 00:03:43;;;;;;;;;;;;;;;16.90;55.11;99306.09;4484790;32;33834;-86
2023/06/14 00:06:12;;;;;;;;;;;;;;;17.03;54.94;99295.91;4482015;31;33702;-89
2023/06/14 00:08:41;;;;;;;;;;;;;;;16.89;55.17;99293.94;4482159;31;34171;-84
2023/06/14 00:11:11;;;;;;;;;;;;;;;16.98;55.06;99298.72;4478693;32;34798;-85
2023/06/14 00:13:41;;;;;;;;;;;;;;;16.95;55.17;99293.63;4483837;32;32577;-87
2023/06/14 00:16:10;;;;;;;;;;;;;;;16.81;55.62;99294.25;4478894;32;35372;-84
2023/06/14 00:18:38;;;;;;;;;;;;;;;16.84;55.89;99298.50;4478747;32;34201;-85
2023/06/14 00:21:07;;;;;;;;;;;;;;;16.62;57.14;99291.59;4480746;32;34360;-84
2023/06/14 00:23:36;;;;;;;;;;;;;;;16.53;57.52;99294.63;4489398;31;33932;-85
2023/06/14 00:26:05;;;;;;;;;;;;;;;15.73;59.68;99303.22;4483444;31;32882;-85
2023/06/14 00:28:35;;;;;;;;;;;;;;;16.76;56.58;99311.91;4478896;32;33874;-85
2023/06/14 00:31:06;;;;;;;;;;;;;;;16.83;56.10;99313.38;4480456;31;32728;-84
2023/06/14 00:33:36;;;;;;;;;;;;;;;16.74;56.65;99305.88;4478761;32;32097;-84
2023/06/14 00:36:06;;;;;;;;;;;;;;;16.85;56.16;99301.06;4483150;32;33538;-85
2023/06/14 00:38:34;;;;;;;;;;;;;;;17.03;55.38;99302.00;4493165;31;33806;-86
2023/06/14 00:41:03;;;;;;;;;;;;;;;16.77;56.42;99307.56;4490783;31;33675;-84
2023/06/14 00:43:34;;;;;;;;;;;;;;;17.00;55.85;99311.75;4479011;32;33875;-86
2023/06/14 00:46:04;;;;;;;;;;;;;;;17.03;55.66;99309.00;4483493;32;34369;-85
2023/06/14 00:48:33;;;;;;;;;;;;;;;16.59;57.04;99306.56;4484124;31;34802;-86
2023/06/14 00:51:03;;;;;;;;;;;;;;;16.90;56.04;99307.87;4495859;31;34468;-85
2023/06/14 00:53:33;;;;;;;;;;;;;;;16.95;56.04;99311.12;4494248;31;33195;-84
2023/06/14 00:56:03;;;;;;;;;;;;;;;16.94;55.94;99312.91;4486644;31;34732;-85
2023/06/14 00:58:32;;;;;;;;;;;;;;;17.01;55.57;99309.09;4486085;31;33761;-87
2023/06/14 01:01:01;;;;;;;;;;;;;;;17.01;55.67;99306.47;4490723;31;34474;-87
2023/06/14 01:03:32;;;;;;;;;;;;;;;16.91;56.20;99312.19;4478379;31;33230;-87
2023/06/14 01:06:04;;;;;;;;;;;;;;;16.96;55.92;99305.84;4484095;31;34237;-85
2023/06/14 01:08:38;;;;;;;;;;;;;;;17.01;55.67;99309.09;4487790;31;35109;-84
2023/06/14 01:11:08;;;;;;;;;;;;;;;16.97;55.76;99298.81;4484853;31;34762;-85
2023/06/14 01:13:38;;;;;;;;;;;;;;;16.99;55.81;99305.69;4481648;31;32573;-86
2023/06/14 01:16:06;;;;;;;;;;;;;;;16.94;55.85;99310.28;4484602;31;34696;-87
2023/06/14 01:18:37;;;;;;;;;;;;;;;16.75;56.62;99306.75;4480120;31;33963;-87
2023/06/14 01:21:06;;;;;;;;;;;;;;;16.82;56.47;99309.06;4492867;31;33361;-85
2023/06/14 01:23:39;;;;;;;;;;;;;;;16.78;57.25;99302.25;4482315;31;33758;-85
2023/06/14 01:26:08;;;;;;;;;;;;;;;16.81;57.21;99302.09;4479387;31;33906;-85
2023/06/14 01:28:38;;;;;;;;;;;;;;;16.70;57.83;99300.87;4486274;31;34949;-86
2023/06/14 01:31:08;;;;;;;;;;;;;;;16.26;59.26;99307.13;4488676;31;33538;-85
2023/06/14 01:33:36;;;;;;;;;;;;;;;16.36;59.27;99312.84;4490512;31;32995;-85
2023/06/14 01:36:06;;;;;;;;;;;;;;;16.28;59.47;99304.44;4480369;31;34761;-86
2023/06/14 01:38:35;;;;;;;;;;;;;;;16.48;58.83;99306.19;4481965;31;33890;-87
2023/06/14 01:41:04;;;;;;;;;;;;;;;16.15;60.11;99307.56;4484301;31;33144;-85
2023/06/14 01:43:33;;;;;;;;;;;;;;;16.42;58.97;99310.78;4483049;32;33205;-85
2023/06/14 01:46:05;;;;;;;;;;;;;;;16.57;58.54;99311.03;4484941;31;33070;-87
2023/06/14 01:48:34;;;;;;;;;;;;;;;16.57;58.78;99314.50;4490001;31;34217;-85
2023/06/14 01:51:04;;;;;;;;;;;;;;;16.59;58.99;99312.66;4480025;31;35096;-87
2023/06/14 01:53:33;;;;;;;;;;;;;;;16.63;58.62;99308.16;4493468;31;34107;-85
2023/06/14 01:56:03;;;;;;;;;;;;;;;16.40;59.23;99314.37;4478157;31;34144;-87
2023/06/14 01:58:32;;;;;;;;;;;;;;;16.56;58.89;99317.19;4477609;31;33631;-88
2023/06/14 02:01:02;;;;;;;;;;;;;;;16.53;59.29;99314.72;4479662;31;35050;-85
2023/06/14 02:03:31;;;;;;;;;;;;;;;16.56;59.29;99322.44;4477365;31;33748;-85
2023/06/14 02:05:59;;;;;;;;;;;;;;;16.58;59.04;99318.81;4482335;31;34291;-86
2023/06/14 02:08:28;;;;;;;;;;;;;;;16.56;59.14;99322.44;4487274;31;33913;-87
2023/06/14 02:11:00;;;;;;;;;;;;;;;16.50;59.63;99323.53;4477341;31;33814;-85
2023/06/14 02:13:30;;;;;;;;;;;;;;;16.53;59.60;99325.19;4477845;31;33000;-85
2023/06/14 02:15:59;;;;;;;;;;;;;;;16.50;59.32;99328.75;4467938;32;32890;-87
2023/06/14 02:18:29;;;;;;;;;;;;;;;16.53;60.12;99322.56;4481193;31;33483;-86
2023/06/14 02:20:58;;;;;;;;;;;;;;;16.48;60.43;99329.75;4479294;31;34141;-85
2023/06/14 02:23:27;;;;;;;;;;;;;;;16.58;60.03;99325.84;4478443;31;33033;-86
2023/06/14 02:25:56;;;;;;;;;;;;;;;16.50;60.40;99325.31;4479952;31;33400;-88
2023/06/14 02:28:25;;;;;;;;;;;;;;;16.61;59.67;99321.31;4490603;31;33285;-87
2023/06/14 02:30:55;;;;;;;;;;;;;;;16.60;59.61;99331.88;4486154;31;34445;-86
2023/06/14 02:33:27;;;;;;;;;;;;;;;16.65;59.37;99324.66;4477697;31;32755;-85
2023/06/14 02:35:56;;;;;;;;;;;;;;;16.50;60.06;99320.91;4477290;31;33908;-85
2023/06/14 02:38:25;;;;;;;;;;;;;;;16.40;60.54;99323.06;4490458;31;34113;-85
2023/06/14 02:40:53;;;;;;;;;;;;;;;16.37;60.59;99328.44;4476930;31;33976;-85
2023/06/14 02:43:22;;;;;;;;;;;;;;;16.52;60.35;99331.31;4478361;31;33181;-85
2023/06/14 02:45:52;;;;;;;;;;;;;;;16.41;60.45;99326.56;4482736;31;34898;-85
2023/06/14 02:48:22;;;;;;;;;;;;;;;16.57;60.00;99330.19;4489712;31;33780;-87
2023/06/14 02:50:51;;;;;;;;;;;;;;;16.41;60.85;99323.94;4481803;31;34077;-86
2023/06/14 02:53:20;;;;;;;;;;;;;;;16.45;60.80;99330.72;4477319;31;34239;-86
2023/06/14 02:55:49;;;;;;;;;;;;;;;16.51;60.66;99321.78;4479769;31;34180;-85
2023/06/14 02:58:20;;;;;;;;;;;;;;;16.51;60.81;99330.47;4488882;31;33885;-85
2023/06/14 03:00:48;;;;;;;;;;;;;;;16.31;61.45;99327.84;4482363;32;33812;-85
2023/06/14 03:03:18;;;;;;;;;;;;;;;16.32;61.52;99334.81;4489697;31;33455;-87
2023/06/14 03:05:51;;;;;;;;;;;;;;;16.24;62.05;99331.66;4493477;31;34715;-85
2023/06/14 03:08:20;;;;;;;;;;;;;;;16.46;61.25;99326.38;4493162;31;34724;-87
2023/06/14 03:10:52;;;;;;;;;;;;;;;16.29;61.93;99330.56;4493587;31;33673;-85
2023/06/14 03:13:22;;;;;;;;;;;;;;;16.18;62.40;99317.91;4497741;31;33313;-86
2023/06/14 03:15:51;;;;;;;;;;;;;;;15.94;63.50;99325.00;4493207;31;33779;-85
2023/06/14 03:18:22;;;;;;;;;;;;;;;16.24;62.77;99316.81;4478286;31;33272;-86
2023/06/14 03:20:57;;;;;;;;;;;;;;;16.13;63.11;99319.88;4492782;31;33937;-85
2023/06/14 03:23:26;;;;;;;;;;;;;;;16.02;64.10;99324.72;4497965;31;32957;-86
2023/06/14 03:25:55;;;;;;;;;;;;;;;16.13;63.64;99309.41;4489072;31;34510;-85
2023/06/14 03:28:25;;;;;;;;;;;;;;;16.33;63.12;99324.28;4479325;31;33869;-87
2023/06/14 03:30:54;;;;;;;;;;;;;;;16.26;63.74;99329.81;4489309;31;35106;-85
2023/06/14 03:33:25;;;;;;;;;;;;;;;16.11;64.15;99326.94;4487808;31;33311;-86
2023/06/14 03:35:56;;;;;;;;;;;;;;;16.39;63.23;99331.84;4483671;31;34200;-86
2023/06/14 03:38:26;;;;;;;;;;;;;;;16.07;64.92;99332.34;4476952;31;33481;-86
2023/06/14 03:40:55;;;;;;;;;;;;;;;16.14;64.59;99325.94;4478052;31;34687;-86
2023/06/14 03:43:25;;;;;;;;;;;;;;;16.54;63.63;99332.97;4478517;31;33236;-86
2023/06/14 03:45:54;;;;;;;;;;;;;;;16.72;63.03;99341.81;4487676;31;34906;-86
2023/06/14 03:48:25;;;;;;;;;;;;;;;16.29;64.83;99335.78;4483568;31;34647;-87
2023/06/14 03:50:55;;;;;;;;;;;;;;;16.30;65.44;99344.50;4482584;31;34088;-85
2023/06/14 03:53:30;;;;;;;;;;;;;;;16.58;64.89;99336.31;4478800;31;32265;-87
2023/06/14 03:55:59;;;;;;;;;;;;;;;16.47;65.36;99342.00;4479060;31;33592;-86
2023/06/14 03:58:30;;;;;;;;;;;;;;;15.87;67.55;99343.63;4485907;31;33279;-86
2023/06/14 04:00:59;;;;;;;;;;;;;;;16.66;65.07;99344.69;4492426;31;34140;-88
2023/06/14 04:03:29;;;;;;;;;;;;;;;17.00;63.80;99337.97;4479677;31;33060;-86
2023/06/14 04:05:59;;;;;;;;;;;;;;;16.03;67.60;99349.94;4494123;31;33190;-86
2023/06/14 04:08:30;;;;;;;;;;;;;;;16.80;65.18;99346.72;4488030;31;35141;-85
2023/06/14 04:10:59;;;;;;;;;;;;;;;16.98;64.06;99350.28;4487140;31;33257;-86
2023/06/14 04:13:27;;;;;;;;;;;;;;;17.17;64.14;99351.16;4479495;31;33377;-86
2023/06/14 04:15:56;;;;;;;;;;;;;;;17.48;62.84;99355.00;4488445;31;34687;-86
2023/06/14 04:18:25;;;;;;;;;;;;;;;18.17;61.06;99353.44;4480103;31;34211;-86
2023/06/14 04:20:56;;;;;;;;;;;;;;;18.84;57.90;99357.06;4491634;31;34140;-85
2023/06/14 04:23:28;;;;;;;;;;;;;;;18.64;58.00;99358.94;4478023;31;33922;-85
2023/06/14 04:26:02;;;;;;;;;;;;;;;18.88;57.00;99361.25;4487393;31;32824;-85
2023/06/14 04:28:31;;;;;;;;;;;;;;;20.28;53.55;99359.63;4485428;31;34420;-85
2023/06/14 04:31:01;;;;;;;;;;;;;;;19.69;54.25;99356.88;4483011;31;33777;-86
2023/06/14 04:33:33;;;;;;;;;;;;;;;20.58;52.45;99354.34;4478759;31;32800;-85
2023/06/14 04:36:02;;;;;;;;;;;;;;;20.88;51.25;99367.50;4488380;31;33524;-87
2023/06/14 04:38:34;;;;;;;;;;;;;;;21.56;48.91;99365.12;4443294;31;1101320;-86
2023/06/14 04:41:30;;;;;;;;;;;;;;;21.44;49.22;99357.03;4485409;31;34147;-87
2023/06/14 04:44:02;;;;;;;;;;;;;;;21.74;48.11;99359.47;4481829;31;32277;-85
2023/06/14 04:46:45;;;;;;;;;;;;;;;21.08;50.03;99363.63;4482806;31;34208;-87
2023/06/14 04:49:16;;;;;;;;;;;;;;;20.19;52.12;99373.34;4491203;31;34328;-85
2023/06/14 04:51:46;;;;;;;;;;;;;;;21.46;48.60;99363.06;4477539;31;34245;-85
2023/06/14 04:54:18;;;;;;;;;;;;;;;21.65;48.07;99356.59;4483608;31;33872;-86
2023/06/14 04:56:48;;;;;;;;;;;;;;;21.35;49.12;99362.00;4490520;31;33568;-86
2023/06/14 04:59:18;;;;;;;;;;;;;;;21.40;48.52;99363.44;4482674;31;34935;-86
2023/06/14 05:01:48;;;;;;;;;;;;;;;20.58;50.94;99378.06;4491066;31;33547;-85
2023/06/14 05:04:18;;;;;;;;;;;;;;;21.60;49.11;99374.50;4476611;31;33912;-85
2023/06/14 05:06:50;;;;;;;;;;;;;;;20.01;52.46;99377.91;4487948;31;33776;-85
2023/06/14 05:09:19;;;;;;;;;;;;;;;20.53;51.68;99376.63;4482104;32;33684;-85
2023/06/14 05:11:52;;;;;;;;;;;;;;;20.89;51.44;99373.59;4484049;31;33284;-85
2023/06/14 05:14:22;;;;;;;;;;;;;;;21.15;49.99;99372.00;4484412;31;34185;-87
2023/06/14 05:16:51;;;;;;;;;;;;;;;22.15;47.55;99377.06;4491990;31;34847;-85
2023/06/14 05:19:20;;;;;;;;;;;;;;;22.58;46.53;99363.66;4491061;31;34179;-85
2023/06/14 05:21:53;;;;;;;;;;;;;;;22.68;46.23;99370.94;4488188;31;34225;-86
2023/06/14 05:24:22;;;;;;;;;;;;;;;22.19;47.32;99376.87;4494023;31;32629;-84
2023/06/14 05:26:52;;;;;;;;;;;;;;;21.43;49.63;99368.53;4479069;31;33794;-86
2023/06/14 05:29:21;;;;;;;;;;;;;;;22.62;46.48;99369.59;4488805;31;33285;-85
2023/06/14 05:31:49;;;;;;;;;;;;;;;23.11;45.12;99378.59;4488010;31;34274;-84
2023/06/14 05:34:18;;;;;;;;;;;;;;;23.14;44.96;99379.22;4480949;31;33897;-85
2023/06/14 05:36:51;;;;;;;;;;;;;;;23.35;44.18;99382.16;4485233;31;34842;-85
2023/06/14 05:39:20;;;;;;;;;;;;;;;22.78;45.68;99382.59;4488945;31;33580;-86
2023/06/14 05:41:49;;;;;;;;;;;;;;;23.26;44.44;99374.03;4490872;31;34538;-85
2023/06/14 05:44:19;;;;;;;;;;;;;;;23.30;44.73;99384.28;4491508;31;34161;-88
2023/06/14 05:46:49;;;;;;;;;;;;;;;23.16;44.73;99377.31;4482176;31;34620;-85
2023/06/14 05:49:17;;;;;;;;;;;;;;;23.54;44.52;99378.22;4484726;31;34701;-86
2023/06/14 05:51:46;;;;;;;;;;;;;;;23.81;43.72;99381.53;4484006;31;33903;-85
2023/06/14 05:54:15;;;;;;;;;;;;;;;24.02;43.39;99388.88;4492815;31;32808;-85
2023/06/14 05:56:43;;;;;;;;;;;;;;;24.11;42.65;99382.88;4480737;31;34991;-86
2023/06/14 05:59:12;;;;;;;;;;;;;;;22.87;45.32;99387.25;4488566;31;34080;-87
2023/06/14 06:01:43;;;;;;;;;;;;;;;22.90;45.78;99384.37;4491848;31;33734;-85
2023/06/14 06:04:12;;;;;;;;;;;;;;;22.49;46.85;99381.94;4494857;31;33297;-86
2023/06/14 06:06:41;;;;;;;;;;;;;;;22.73;46.47;99384.72;4477389;31;34256;-84
2023/06/14 06:09:09;;;;;;;;;;;;;;;22.76;46.32;99380.06;4488965;31;34692;-87
2023/06/14 06:11:38;;;;;;;;;;;;;;;22.06;48.14;99388.25;4490543;31;34443;-84
2023/06/14 06:14:19;;;;;;;;;;;;;;;22.07;47.34;99389.94;4490347;31;33642;-85
2023/06/14 06:16:49;;;;;;;;;;;;;;;21.84;48.62;99383.53;4497737;31;33747;-86
2023/06/14 06:19:18;;;;;;;;;;;;;;;21.89;48.18;99385.84;4488222;31;33591;-84
2023/06/14 06:21:47;;;;;;;;;;;;;;;22.05;47.93;99383.91;4491162;31;33842;-84
2023/06/14 06:24:16;;;;;;;;;;;;;;;22.06;48.33;99388.25;4488722;31;32537;-85
2023/06/14 06:26:44;;;;;;;;;;;;;;;22.36;47.26;99381.91;4491726;31;34160;-86
2023/06/14 06:29:14;;;;;;;;;;;;;;;22.47;47.79;99387.34;4490154;31;34360;-85
2023/06/14 06:31:47;;;;;;;;;;;;;;;22.40;47.38;99391.34;4478581;31;33860;-85
2023/06/14 06:34:17;;;;;;;;;;;;;;;22.34;48.11;99392.56;4491878;31;33237;-85
2023/06/14 06:36:46;;;;;;;;;;;;;;;22.84;45.72;99382.19;4466964;31;33441;-87
2023/06/14 06:39:15;;;;;;;;;;;;;;;22.66;46.72;99388.72;4490522;31;34599;-87
2023/06/14 06:41:43;;;;;;;;;;;;;;;22.54;46.76;99388.63;4488014;31;33808;-86
2023/06/14 06:44:12;;;;;;;;;;;;;;;21.61;49.35;99386.78;4493046;31;33879;-85
2023/06/14 06:46:42;;;;;;;;;;;;;;;22.35;47.64;99399.56;4492895;31;34157;-85
2023/06/14 06:49:12;;;;;;;;;;;;;;;22.56;47.05;99391.97;4495364;31;34920;-85
2023/06/14 06:51:44;;;;;;;;;;;;;;;22.81;47.16;99395.62;4487184;31;33469;-85
2023/06/14 06:54:13;;;;;;;;;;;;;;;22.81;46.73;99392.97;4490774;31;34082;-85
2023/06/14 06:56:41;;;;;;;;;;;;;;;22.75;46.66;99399.50;4490506;31;33878;-85
2023/06/14 06:59:10;;;;;;;;;;;;;;;23.15;45.87;99395.97;4492002;31;33343;-87
2023/06/14 07:01:39;;;;;;;;;;;;;;;23.07;46.50;99400.94;4497658;31;34441;-85
2023/06/14 07:04:08;;;;;;;;;;;;;;;22.96;46.79;99399.84;4492532;31;32533;-85
2023/06/14 07:06:37;;;;;;;;;;;;;;;22.91;46.80;99401.97;4492250;31;33815;-86
2023/06/14 07:09:12;;;;;;;;;;;;;;;23.08;45.66;99402.62;4492859;31;32858;-85
2023/06/14 07:11:41;;;;;;;;;;;;;;;22.64;47.51;99398.53;4497246;31;33563;-86
2023/06/14 07:14:10;;;;;;;;;;;;;;;22.50;47.22;99402.16;4494329;31;33081;-85
2023/06/14 07:16:38;;;;;;;;;;;;;;;22.93;45.86;99400.06;4494221;31;33821;-85
2023/06/14 07:19:07;;;;;;;;;;;;;;;23.16;45.45;99401.13;4495381;31;34094;-87
2023/06/14 07:21:38;;;;;;;;;;;;;;;23.16;45.49;99400.28;4498474;31;34423;-84
2023/06/14 07:24:11;;;;;;;;;;;;;;;23.12;45.96;99407.63;4498908;31;33358;-87
2023/06/14 07:26:40;;;;;;;;;;;;;;;23.16;44.41;99406.44;4494250;31;33841;-86
2023/06/14 07:29:09;;;;;;;;;;;;;;;23.11;45.19;99395.31;4494228;31;33528;-86
2023/06/14 07:31:37;;;;;;;;;;;;;;;22.81;44.83;99400.91;4494663;31;34845;-85
2023/06/14 07:34:08;;;;;;;;;;;;;;;22.86;45.64;99404.09;4496198;31;33104;-84
2023/06/14 07:36:37;;;;;;;;;;;;;;;22.94;46.24;99401.75;4494290;31;33881;-85
2023/06/14 07:39:06;;;;;;;;;;;;;;;23.04;46.23;99409.09;4494567;31;33847;-87
2023/06/14 07:41:37;;;;;;;;;;;;;;;22.66;46.33;99409.88;4487679;31;33960;-86
2023/06/14 07:44:05;;;;;;;;;;;;;;;23.11;44.84;99407.72;4483856;32;33162;-85
2023/06/14 07:46:35;;;;;;;;;;;;;;;23.43;44.18;99406.28;4491803;31;34563;-84
2023/06/14 07:49:03;;;;;;;;;;;;;;;23.31;43.30;99412.44;4494785;31;35045;-86
2023/06/14 07:51:32;;;;;;;;;;;;;;;23.47;43.61;99411.38;4494317;31;34297;-85
2023/06/14 07:54:02;;;;;;;;;;;;;;;23.54;43.54;99423.22;4493700;31;33321;-86
2023/06/14 07:56:32;;;;;;;;;;;;;;;23.73;43.18;99415.69;4499193;31;32735;-84
2023/06/14 07:59:01;;;;;;;;;;;;;;;23.85;42.86;99421.91;4494720;31;33987;-85
2023/06/14 08:01:33;;;;;;;;;;;;;;;23.94;43.78;99423.00;4494874;31;34231;-86
2023/06/14 08:04:02;;;;;;;;;;;;;;;23.28;44.00;99417.13;4494377;31;33771;-84
2023/06/14 08:06:31;;;;;;;;;;;;;;;22.92;45.30;99416.88;4498015;31;34697;-85
2023/06/14 08:09:00;;;;;;;;;;;;;;;23.89;43.97;99425.16;4494627;31;34790;-84
2023/06/14 08:11:29;;;;;;;;;;;;;;;23.79;43.15;99417.88;4494831;31;33670;-84
2023/06/14 08:13:58;;;;;;;;;;;;;;;24.02;42.56;99420.66;4494909;31;33041;-85
2023/06/14 08:16:28;;;;;;;;;;;;;;;23.33;44.37;99423.78;4494759;31;34290;-87
2023/06/14 08:18:56;;;;;;;;;;;;;;;23.74;43.16;99417.38;4499474;31;34997;-84
2023/06/14 08:21:27;;;;;;;;;;;;;;;23.54;43.90;99420.56;4494652;31;33986;-85
2023/06/14 08:23:56;;;;;;;;;;;;;;;23.82;43.87;99415.03;4494532;31;33741;-87
2023/06/14 08:26:28;;;;;;;;;;;;;;;23.49;44.04;99414.75;4494103;31;33746;-86
2023/06/14 08:28:57;;;;;;;;;;;;;;;23.81;44.13;99421.25;4498732;31;34490;-85
2023/06/14 08:31:27;;;;;;;;;;;;;;;23.94;43.53;99418.56;4494494;31;34697;-85
2023/06/14 08:33:57;;;;;;;;;;;;;;;24.21;42.92;99423.66;4494246;31;33227;-87
2023/06/14 08:36:27;;;;;;;;;;;;;;;24.31;42.33;99428.25;4494752;31;33920;-85
2023/06/14 08:38:55;;;;;;;;;;;;;;;24.30;42.91;99432.72;4494081;31;33706;-85
2023/06/14 08:41:24;;;;;;;;;;;;;;;24.28;43.35;99440.81;4493516;31;34689;-85
2023/06/14 08:43:53;;;;;;;;;;;;;;;24.36;43.36;99442.03;4478642;32;34064;-85
2023/06/14 08:46:22;;;;;;;;;;;;;;;24.40;42.01;99446.13;4478587;32;33849;-86
2023/06/14 08:48:52;;;;;;;;;;;;;;;24.37;42.12;99443.72;4478301;32;34917;-85
2023/06/14 08:51:22;;;;;;;;;;;;;;;24.53;40.98;99441.66;4483353;32;34509;-86
2023/06/14 08:53:53;;;;;;;;;;;;;;;24.58;41.17;99449.25;4480733;32;32811;-85
2023/06/14 08:56:21;;;;;;;;;;;;;;;24.56;41.09;99451.19;4478513;32;33258;-86
2023/06/14 08:58:51;;;;;;;;;;;;;;;24.69;41.16;99462.53;4478353;32;34688;-85
2023/06/14 09:01:21;;;;;;;;;;;;;;;24.84;40.49;99463.19;4479460;32;33822;-85
2023/06/14 09:03:51;;;;;;;;;;;;;;;24.86;40.38;99464.78;4483226;32;33086;-85
2023/06/14 09:06:22;;;;;;;;;;;;;;;24.92;40.95;99466.13;4478199;32;33877;-85
2023/06/14 09:08:52;;;;;;;;;;;;;;;25.04;41.02;99473.13;4478165;32;36452;-86
2023/06/14 09:11:21;;;;;;;;;;;;;;;25.10;40.03;99463.84;4479212;32;34706;-85
2023/06/14 09:13:49;;;;;;;;;;;;;;;25.00;40.83;99461.06;4483509;32;33455;-85
2023/06/14 09:16:18;;;;;;;;;;;;;;;25.17;40.65;99462.44;4478520;32;34426;-85
2023/06/14 09:18:48;;;;;;;;;;;;;;;25.23;39.86;99472.59;4476402;32;34656;-84
2023/06/14 09:21:17;;;;;;;;;;;;;;;25.15;38.98;99474.09;4480731;32;33854;-85
2023/06/14 09:23:48;;;;;;;;;;;;;;;25.12;38.71;99459.28;4481810;31;32609;-85
2023/06/14 09:26:17;;;;;;;;;;;;;;;25.18;37.90;99463.28;4482934;32;34691;-84
2023/06/14 09:28:46;;;;;;;;;;;;;;;24.86;38.18;99469.22;4478322;32;33866;-87
2023/06/14 09:31:16;;;;;;;;;;;;;;;24.73;37.99;99468.47;4478200;32;35042;-85
2023/06/14 09:33:47;;;;;;;;;;;;;;;24.88;36.86;99456.69;4489349;31;33355;-88
2023/06/14 09:36:17;;;;;;;;;;;;;;;24.59;37.33;99465.03;4498612;31;34676;-87
2023/06/14 09:38:54;;;;;;;;;;;;;;;24.76;36.69;99463.78;4493932;31;34297;-86
2023/06/14 09:41:31;;;;;;;;;;;;;;;24.92;36.43;99452.84;4488779;31;33912;-85
2023/06/14 09:44:00;;;;;;;;;;;;;;;24.90;37.76;99450.31;4478392;32;33765;-86
2023/06/14 09:46:29;;;;;;;;;;;;;;;25.00;37.53;99446.94;4478217;32;35176;-85
2023/06/14 09:48:58;;;;;;;;;;;;;;;24.95;38.07;99449.12;4483105;32;33860;-85
2023/06/14 09:51:30;;;;;;;;;;;;;;;24.73;38.95;99444.59;4478731;32;33557;-86
2023/06/14 09:54:00;;;;;;;;;;;;;;;24.69;39.39;99442.19;4478228;32;32686;-85
2023/06/14 09:56:30;;;;;;;;;;;;;;;25.15;37.64;99442.25;4477928;32;34566;-85
2023/06/14 09:59:00;;;;;;;;;;;;;;;24.90;38.52;99444.16;4482871;32;35012;-87
2023/06/14 10:01:41;;;;;;;;;;;;;;;24.83;39.22;99442.94;4482732;32;33657;-86
2023/06/14 10:04:10;;;;;;;;;;;;;;;25.04;37.99;99441.28;4478520;32;33847;-85
2023/06/14 10:06:41;;;;;;;;;;;;;;;24.69;39.60;99444.84;4478374;32;34223;-84
2023/06/14 10:09:12;;;;;;;;;;;;;;;24.91;38.38;99445.84;4477896;32;35146;-86
2023/06/14 10:11:43;;;;;;;;;;;;;;;24.52;40.07;99439.09;4482848;32;34965;-85
2023/06/14 10:14:14;;;;;;;;;;;;;;;24.57;39.24;99439.59;4477910;32;33711;-85
2023/06/14 10:16:44;;;;;;;;;;;;;;;25.04;38.74;99435.97;4478064;32;33352;-88
2023/06/14 10:19:15;;;;;;;;;;;;;;;25.00;37.39;99434.50;4478042;31;34779;-84
2023/06/14 10:21:48;;;;;;;;;;;;;;;25.21;36.58;99432.03;4487485;31;34088;-84
2023/06/14 10:24:19;;;;;;;;;;;;;;;25.38;34.44;99436.03;4493728;31;33593;-87
2023/06/14 10:26:51;;;;;;;;;;;;;;;25.16;35.18;99433.34;4493796;31;34725;-87
2023/06/14 10:29:20;;;;;;;;;;;;;;;25.39;34.82;99434.22;4492021;31;33572;-84
2023/06/14 10:31:49;;;;;;;;;;;;;;;26.03;34.01;99428.25;4493589;31;34163;-85
2023/06/14 10:34:25;;;;;;;;;;;;;;;26.13;34.33;99424.69;4486576;31;33499;-85
2023/06/14 10:37:03;;;;;;;;;;;;;;;26.28;33.51;99421.75;4493396;31;34046;-86
2023/06/14 10:39:34;;;;;;;;;;;;;;;26.52;32.03;99421.53;4483342;31;34230;-87
2023/06/14 10:42:05;;;;;;;;;;;;;;;26.19;31.44;99431.31;4492890;31;34565;-85
2023/06/14 10:44:40;;;;;;;;;;;;;;;26.08;31.34;99423.41;4486127;31;33047;-85
2023/06/14 10:47:29;;;;;;;;;;;;;;;26.41;30.68;99417.13;4481960;31;33174;-87
2023/06/14 10:50:00;;;;;;;;;;;;;;;26.43;30.00;99420.47;4484582;31;34891;-86
2023/06/14 10:52:31;;;;;;;;;;;;;;;26.75;30.30;99419.63;4484481;31;33869;-83
2023/06/14 10:55:03;;;;;;;;;;;;;;;26.45;31.64;99417.69;4494056;31;32966;-86
2023/06/14 10:57:33;;;;;;;;;;;;;;;26.26;31.36;99410.38;4493573;31;35052;-86
2023/06/14 11:00:22;;;;;;;;;;;;;;;26.26;31.45;99405.91;4479937;31;34303;-84
2023/06/14 11:03:14;;;;;;;;;;;;;;;26.27;32.17;99402.28;4495424;31;34807;-85
2023/06/14 11:05:43;;;;;;;;;;;;;;;26.26;29.24;99405.06;4491922;31;33028;-84
2023/06/14 11:08:19;;;;;;;;;;;;;;;26.29;30.38;99408.34;4477209;31;32773;-84
2023/06/14 11:10:49;;;;;;;;;;;;;;;26.57;28.39;99400.72;4492352;31;33932;-84
2023/06/14 11:13:18;;;;;;;;;;;;;;;26.69;28.28;99397.03;4492520;31;34147;-86
2023/06/14 11:15:49;;;;;;;;;;;;;;;26.69;28.55;99397.03;4490027;31;33392;-85
2023/06/14 11:18:18;;;;;;;;;;;;;;;26.97;29.24;99398.19;4477273;32;34067;-83
2023/06/14 11:20:47;;;;;;;;;;;;;;;27.32;28.02;99396.94;4476973;32;34831;-86
2023/06/14 11:23:15;;;;;;;;;;;;;;;27.50;29.46;99397.16;4475918;31;34257;-87
2023/06/14 11:25:44;;;;;;;;;;;;;;;27.79;29.20;99396.41;4488780;31;33470;-86
2023/06/14 11:28:14;;;;;;;;;;;;;;;27.98;27.86;99395.59;4482072;31;34512;-83
2023/06/14 11:30:43;;;;;;;;;;;;;;;28.16;27.87;99398.44;4492996;31;33257;-84
2023/06/14 11:33:12;;;;;;;;;;;;;;;28.27;28.70;99406.28;4493846;31;33271;-84
2023/06/14 11:35:41;;;;;;;;;;;;;;;28.35;27.70;99394.91;4481699;31;33044;-86
2023/06/14 11:38:10;;;;;;;;;;;;;;;28.46;27.60;99397.44;4481169;31;33697;-83
2023/06/14 11:40:39;;;;;;;;;;;;;;;28.71;26.33;99390.69;4462521;32;33814;-86
2023/06/14 11:43:08;;;;;;;;;;;;;;;29.08;27.01;99396.09;4484702;31;34057;-85
2023/06/14 11:45:38;;;;;;;;;;;;;;;29.09;25.65;99389.78;4490573;31;32919;-85
2023/06/14 11:48:07;;;;;;;;;;;;;;;28.67;26.26;99394.62;4487427;31;34868;-86
2023/06/14 11:50:38;;;;;;;;;;;;;;;28.61;27.79;99395.19;4492787;31;34120;-83
2023/06/14 11:53:07;;;;;;;;;;;;;;;28.78;27.07;99398.94;4477672;31;33853;-84
2023/06/14 11:55:37;;;;;;;;;;;;;;;28.61;25.75;99389.84;4476631;32;33279;-83
2023/06/14 11:58:05;;;;;;;;;;;;;;;28.15;26.55;99396.72;4481431;32;33882;-83
2023/06/14 12:00:37;;;;;;;;;;;;;;;27.98;26.72;99390.25;4490423;31;34142;-83
2023/06/14 12:03:07;;;;;;;;;;;;;;;27.76;26.17;99386.81;4496364;31;34110;-83
2023/06/14 12:05:36;;;;;;;;;;;;;;;28.01;26.44;99390.84;4494598;31;34337;-82
2023/06/14 12:08:05;;;;;;;;;;;;;;;27.69;26.46;99395.50;4485884;31;35161;-86
2023/06/14 12:10:40;;;;;;;;;;;;;;;27.33;28.76;99396.00;4486671;31;33895;-83
2023/06/14 12:13:09;;;;;;;;;;;;;;;27.31;29.97;99397.09;4487917;31;33682;-85
2023/06/14 12:15:39;;;;;;;;;;;;;;;26.81;30.21;99398.63;4494857;31;33472;-84
2023/06/14 12:18:11;;;;;;;;;;;;;;;26.44;30.96;99405.38;4482528;31;34188;-82
2023/06/14 12:20:40;;;;;;;;;;;;;;;26.43;30.54;99395.69;4489583;31;34225;-83
2023/06/14 12:23:10;;;;;;;;;;;;;;;26.42;30.77;99402.00;4492187;31;34289;-83
2023/06/14 12:25:39;;;;;;;;;;;;;;;26.04;32.38;99403.34;4477453;31;33360;-86
2023/06/14 12:28:09;;;;;;;;;;;;;;;26.46;31.28;99401.59;4478255;31;34083;-85
2023/06/14 12:30:41;;;;;;;;;;;;;;;26.65;31.63;99397.41;4480057;31;34901;-85
2023/06/14 12:33:11;;;;;;;;;;;;;;;26.97;31.27;99402.66;4493147;31;33812;-84
2023/06/14 12:35:40;;;;;;;;;;;;;;;27.10;30.23;99399.78;4479781;31;33438;-83
2023/06/14 12:38:09;;;;;;;;;;;;;;;27.12;30.52;99400.50;4481069;31;33902;-83
2023/06/14 12:40:42;;;;;;;;;;;;;;;27.31;29.92;99399.78;4480147;31;34254;-84
2023/06/14 12:43:12;;;;;;;;;;;;;;;27.72;31.06;99395.25;4494604;31;33798;-84
2023/06/14 12:45:41;;;;;;;;;;;;;;;27.64;30.49;99404.78;4485822;31;34030;-86
2023/06/14 12:48:10;;;;;;;;;;;;;;;26.82;32.89;99407.50;4473296;31;34775;-84
2023/06/14 12:50:39;;;;;;;;;;;;;;;25.94;34.38;99412.06;4486619;31;33761;-85
2023/06/14 12:53:08;;;;;;;;;;;;;;;25.83;34.50;99408.56;4483531;31;33840;-84
2023/06/14 12:55:36;;;;;;;;;;;;;;;25.73;34.88;99395.16;4490475;31;34768;-84
2023/06/14 12:58:05;;;;;;;;;;;;;;;25.75;34.14;99399.41;4480582;31;34178;-84
2023/06/14 13:00:33;;;;;;;;;;;;;;;25.72;35.18;99397.00;4482003;31;34718;-84
2023/06/14 13:03:04;;;;;;;;;;;;;;;25.37;35.25;99398.97;4488116;31;34219;-86